Aviation Digital Data Service (ADDS)

Output produced by METARs form (2039 UTC 20 August 2019)
found at http://www.aviationweather.gov/metar/data/
 
METAR text: DNMN 201900Z 28006KT 9999 FEW010 FEW020CB 26/23 Q1013
Conditions at: DNMN (MINNA AIRPORT , NG) observed 1900 UTC 20 August 2019
Temperature: 26.0°C (79°F)
Dewpoint: 23.0°C (73°F) [RH = 84%]
Pressure (altimeter): 29.91 inches Hg (1013.0 mb)
Winds: from the W (280 degrees) at 7 MPH (6 knots; 3.1 m/s)
Visibility: 6 or more miles (10+ km)
Ceiling: at least 12,000 feet AGL
Clouds: few clouds at 1000 feet AGL
few clouds at 2000 feet AGL
Weather: no significant weather observed at this time

METAR text: DNMN 201400Z 25015KT 9999 SCT012 29/24 Q1012
Conditions at: DNMN (MINNA AIRPORT , NG) observed 1400 UTC 20 August 2019
Temperature: 29.0°C (84°F)
Dewpoint: 24.0°C (75°F) [RH = 74%]
Pressure (altimeter): 29.88 inches Hg (1012.0 mb)
Winds: from the WSW (250 degrees) at 17 MPH (15 knots; 7.7 m/s)
Visibility: 6 or more miles (10+ km)
Ceiling: at least 12,000 feet AGL
Clouds: scattered clouds at 1200 feet AGL
Weather: no significant weather observed at this time

METAR text: DNMN 201000Z 17013KT 9999 BKN009 26/23 Q1015
Conditions at: DNMN (MINNA AIRPORT , NG) observed 1000 UTC 20 August 2019
Temperature: 26.0°C (79°F)
Dewpoint: 23.0°C (73°F) [RH = 84%]
Pressure (altimeter): 29.97 inches Hg (1015.0 mb)
Winds: from the S (170 degrees) at 15 MPH (13 knots; 6.7 m/s)
Visibility: 6 or more miles (10+ km)
Ceiling: 900 feet AGL
Clouds: broken clouds at 900 feet AGL
Weather: no significant weather observed at this time

METAR text: DNMN 200800Z 17008KT 9999 SCT009 24/22 Q1015
Conditions at: DNMN (MINNA AIRPORT , NG) observed 0800 UTC 20 August 2019
Temperature: 24.0°C (75°F)
Dewpoint: 22.0°C (72°F) [RH = 89%]
Pressure (altimeter): 29.97 inches Hg (1015.0 mb)
Winds: from the S (170 degrees) at 9 MPH (8 knots; 4.1 m/s)
Visibility: 6 or more miles (10+ km)
Ceiling: at least 12,000 feet AGL
Clouds: scattered clouds at 900 feet AGL
Weather: no significant weather observed at this time

METAR text: DNMN 200700Z 14009KT 9999 FEW009 23/22 Q1014 NOSIG
Conditions at: DNMN (MINNA AIRPORT , NG) observed 0700 UTC 20 August 2019
Temperature: 23.0°C (73°F)
Dewpoint: 22.0°C (72°F) [RH = 94%]
Pressure (altimeter): 29.94 inches Hg (1014.0 mb)
Winds: from the SE (140 degrees) at 10 MPH (9 knots; 4.6 m/s)
Visibility: 6 or more miles (10+ km)
Ceiling: at least 12,000 feet AGL
Clouds: few clouds at 900 feet AGL
Weather: no significant weather observed at this time

METAR text: DNMN 200600Z 15007KT 9999 SCT009 23/22 Q1013 NOSIG
Conditions at: DNMN (MINNA AIRPORT , NG) observed 0600 UTC 20 August 2019
Temperature: 23.0°C (73°F)
Dewpoint: 22.0°C (72°F) [RH = 94%]
Pressure (altimeter): 29.91 inches Hg (1013.0 mb)
Winds: from the SSE (150 degrees) at 8 MPH (7 knots; 3.6 m/s)
Visibility: 6 or more miles (10+ km)
Ceiling: at least 12,000 feet AGL
Clouds: scattered clouds at 900 feet AGL
Weather: no significant weather observed at this time

METAR text: DNMN 200400Z 18005KT 8000 SCT008 23/22 Q1013 NOSIG
Conditions at: DNMN (MINNA AIRPORT , NG) observed 0400 UTC 20 August 2019
Temperature: 23.0°C (73°F)
Dewpoint: 22.0°C (72°F) [RH = 94%]
Pressure (altimeter): 29.91 inches Hg (1013.0 mb)
Winds: from the S (180 degrees) at 6 MPH (5 knots; 2.6 m/s)
Visibility: 5 miles ( 8 km)
Ceiling: at least 12,000 feet AGL
Clouds: scattered clouds at 800 feet AGL
Weather: no significant weather observed at this time

METAR text: DNMN 200200Z 14006KT 9999 FEW008 23/22 Q1013
Conditions at: DNMN (MINNA AIRPORT , NG) observed 0200 UTC 20 August 2019
Temperature: 23.0°C (73°F)
Dewpoint: 22.0°C (72°F) [RH = 94%]
Pressure (altimeter): 29.91 inches Hg (1013.0 mb)
Winds: from the SE (140 degrees) at 7 MPH (6 knots; 3.1 m/s)
Visibility: 6 or more miles (10+ km)
Ceiling: at least 12,000 feet AGL
Clouds: few clouds at 800 feet AGL
Weather: no significant weather observed at this time

METAR text: DNMN 200100Z 14006KT 9999 SCT008 23/22 Q1013
Conditions at: DNMN (MINNA AIRPORT , NG) observed 0100 UTC 20 August 2019
Temperature: 23.0°C (73°F)
Dewpoint: 22.0°C (72°F) [RH = 94%]
Pressure (altimeter): 29.91 inches Hg (1013.0 mb)
Winds: from the SE (140 degrees) at 7 MPH (6 knots; 3.1 m/s)
Visibility: 6 or more miles (10+ km)
Ceiling: at least 12,000 feet AGL
Clouds: scattered clouds at 800 feet AGL
Weather: no significant weather observed at this time

METAR text: DNMN 192200Z 29005KT 9999 SCT009 23/22 Q1014
Conditions at: DNMN (MINNA AIRPORT , NG) observed 2200 UTC 19 August 2019
Temperature: 23.0°C (73°F)
Dewpoint: 22.0°C (72°F) [RH = 94%]
Pressure (altimeter): 29.94 inches Hg (1014.0 mb)
Winds: from the WNW (290 degrees) at 6 MPH (5 knots; 2.6 m/s)
Visibility: 6 or more miles (10+ km)
Ceiling: at least 12,000 feet AGL
Clouds: scattered clouds at 900 feet AGL
Weather: no significant weather observed at this time

METAR text: DNMN 192000Z 29004KT 9999 TS SCT010 FEW019CB 24/22 Q1013 RMK CB N TO E
Conditions at: DNMN (MINNA AIRPORT , NG) observed 2000 UTC 19 August 2019
Temperature: 24.0°C (75°F)
Dewpoint: 22.0°C (72°F) [RH = 89%]
Pressure (altimeter): 29.91 inches Hg (1013.0 mb)
Winds: from the WNW (290 degrees) at 5 MPH (4 knots; 2.1 m/s)
Visibility: 6 or more miles (10+ km)
Ceiling: at least 12,000 feet AGL
Clouds: scattered clouds at 1000 feet AGL
few clouds at 1900 feet AGL
Weather: TS  (thunderstorm)

METAR text: DNMN 191900Z 29004KT 9999 TS BKN009 FEW019CB 24/23 Q1012 RMK CB N TO E
Conditions at: DNMN (MINNA AIRPORT , NG) observed 1900 UTC 19 August 2019
Temperature: 24.0°C (75°F)
Dewpoint: 23.0°C (73°F) [RH = 94%]
Pressure (altimeter): 29.88 inches Hg (1012.0 mb)
Winds: from the WNW (290 degrees) at 5 MPH (4 knots; 2.1 m/s)
Visibility: 6 or more miles (10+ km)
Ceiling: 900 feet AGL
Clouds: broken clouds at 900 feet AGL
few clouds at 1900 feet AGL
Weather: TS  (thunderstorm)

METAR text: DNMN 191800Z 28006KT 9999 BKN009 24/22 Q1011
Conditions at: DNMN (MINNA AIRPORT , NG) observed 1800 UTC 19 August 2019
Temperature: 24.0°C (75°F)
Dewpoint: 22.0°C (72°F) [RH = 89%]
Pressure (altimeter): 29.85 inches Hg (1011.0 mb)
Winds: from the W (280 degrees) at 7 MPH (6 knots; 3.1 m/s)
Visibility: 6 or more miles (10+ km)
Ceiling: 900 feet AGL
Clouds: broken clouds at 900 feet AGL
Weather: no significant weather observed at this time

METAR text: DNMN 191700Z 29007KT 9999 SCT009 25/22 Q1010
Conditions at: DNMN (MINNA AIRPORT , NG) observed 1700 UTC 19 August 2019
Temperature: 25.0°C (77°F)
Dewpoint: 22.0°C (72°F) [RH = 83%]
Pressure (altimeter): 29.82 inches Hg (1010.0 mb)
Winds: from the WNW (290 degrees) at 8 MPH (7 knots; 3.6 m/s)
Visibility: 6 or more miles (10+ km)
Ceiling: at least 12,000 feet AGL
Clouds: scattered clouds at 900 feet AGL
Weather: no significant weather observed at this time

METAR text: DNMN 191400Z 32006KT 9999 BKN008 24/23 Q1012
Conditions at: DNMN (MINNA AIRPORT , NG) observed 1400 UTC 19 August 2019
Temperature: 24.0°C (75°F)
Dewpoint: 23.0°C (73°F) [RH = 94%]
Pressure (altimeter): 29.88 inches Hg (1012.0 mb)
Winds: from the NW (320 degrees) at 7 MPH (6 knots; 3.1 m/s)
Visibility: 6 or more miles (10+ km)
Ceiling: 800 feet AGL
Clouds: broken clouds at 800 feet AGL
Weather: no significant weather observed at this time

METAR text: DNMN 191300Z 31006KT 9999 BKN008 23/22 Q1013
Conditions at: DNMN (MINNA AIRPORT , NG) observed 1300 UTC 19 August 2019
Temperature: 23.0°C (73°F)
Dewpoint: 22.0°C (72°F) [RH = 94%]
Pressure (altimeter): 29.91 inches Hg (1013.0 mb)
Winds: from the NW (310 degrees) at 7 MPH (6 knots; 3.1 m/s)
Visibility: 6 or more miles (10+ km)
Ceiling: 800 feet AGL
Clouds: broken clouds at 800 feet AGL
Weather: no significant weather observed at this time

METAR text: DNMN 191100Z 23010KT 9999 BKN008 23/22 Q1014
Conditions at: DNMN (MINNA AIRPORT , NG) observed 1100 UTC 19 August 2019
Temperature: 23.0°C (73°F)
Dewpoint: 22.0°C (72°F) [RH = 94%]
Pressure (altimeter): 29.94 inches Hg (1014.0 mb)
Winds: from the SW (230 degrees) at 12 MPH (10 knots; 5.1 m/s)
Visibility: 6 or more miles (10+ km)
Ceiling: 800 feet AGL
Clouds: broken clouds at 800 feet AGL
Weather: no significant weather observed at this time

METAR text: DNMN 191000Z 23006KT 3000 +RA OVC008 22/21 Q1014
Conditions at: DNMN (MINNA AIRPORT , NG) observed 1000 UTC 19 August 2019
Temperature: 22.0°C (72°F)
Dewpoint: 21.0°C (70°F) [RH = 94%]
Pressure (altimeter): 29.94 inches Hg (1014.0 mb)
Winds: from the SW (230 degrees) at 7 MPH (6 knots; 3.1 m/s)
Visibility: 1.86 miles (2.99 km)
Ceiling: 800 feet AGL
Clouds: overcast cloud deck at 800 feet AGL
Weather: +RA  (heavy rain)

METAR text: DNMN 190900Z 28008KT 9999 OVC008 23/22 Q1014
Conditions at: DNMN (MINNA AIRPORT , NG) observed 0900 UTC 19 August 2019
Temperature: 23.0°C (73°F)
Dewpoint: 22.0°C (72°F) [RH = 94%]
Pressure (altimeter): 29.94 inches Hg (1014.0 mb)
Winds: from the W (280 degrees) at 9 MPH (8 knots; 4.1 m/s)
Visibility: 6 or more miles (10+ km)
Ceiling: 800 feet AGL
Clouds: overcast cloud deck at 800 feet AGL
Weather: no significant weather observed at this time

Forecast for: DNMN (MINNA AIRPORT , NG)
Text: TAF DNMN 201700Z 2018/2124 25011KT 9999 SCT012 FEW020CB
Forecast period: 1800 to 2200 UTC 20 August 2019
Forecast type: FROM: standard forecast or significant change
Winds: from the WSW (250 degrees) at 13 MPH (11 knots; 5.7 m/s)
Visibility: 6 or more miles 10+ km)
Ceiling: at least 12,000 feet AGL
Clouds: scattered clouds at 1200 feet AGL
few clouds at 2000 feet AGL
Weather: no significant weather forecast for this period
Text: PROB30
Forecast period: 1800 to 2200 UTC 20 August 2019
Forecast type: TEMPORARY: The following changes expected for less than half the time period
Visibility: 3 miles (5 km)
Ceiling: 800 feet AGL
Clouds: broken clouds at 800 feet AGL
few clouds at 1800 feet AGL
Weather: -TSRA  (light rain associated with thunderstorm(s))
Text: TEMPO 2018/2022 5000 -TSRA BKN008 FEW018CB
Forecast period: 2200 UTC 20 August 2019 to 0000 UTC 22 August 2019
Forecast type: BECOMING: Conditions expected to become as follows by 0000 UTC 21 August 2019
Winds: from the SE (130 degrees) at 6 MPH (5 knots; 2.6 m/s)
Visibility: 6 or more miles 10+ km)
Ceiling: at least 12,000 feet AGL
Clouds: scattered clouds at 800 feet AGL
Weather: no significant weather forecast for this period